sensor_id;sensor_type;location;lat;lon;timestamp;P1;durP1;ratioP1;P2;durP2;ratioP2
39314;SDS011;28703;44.412;11.918;2023-12-28T00:01:19;49.75;;;37.15;;
39314;SDS011;28703;44.412;11.918;2023-12-28T00:03:45;51.65;;;36.67;;
39314;SDS011;28703;44.412;11.918;2023-12-28T00:06:11;55.78;;;39.50;;
39314;SDS011;28703;44.412;11.918;2023-12-28T00:08:36;54.13;;;36.85;;
39314;SDS011;28703;44.412;11.918;2023-12-28T00:11:02;51.70;;;37.20;;
39314;SDS011;28703;44.412;11.918;2023-12-28T00:13:28;52.50;;;35.42;;
39314;SDS011;28703;44.412;11.918;2023-12-28T00:15:54;46.47;;;35.90;;
39314;SDS011;28703;44.412;11.918;2023-12-28T00:18:19;54.90;;;37.40;;
39314;SDS011;28703;44.412;11.918;2023-12-28T00:20:45;47.72;;;34.50;;
39314;SDS011;28703;44.412;11.918;2023-12-28T00:23:11;48.63;;;34.95;;
39314;SDS011;28703;44.412;11.918;2023-12-28T00:25:37;49.88;;;35.38;;
39314;SDS011;28703;44.412;11.918;2023-12-28T00:28:03;50.42;;;34.40;;
39314;SDS011;28703;44.412;11.918;2023-12-28T00:30:29;47.78;;;34.20;;
39314;SDS011;28703;44.412;11.918;2023-12-28T00:32:55;55.53;;;37.00;;
39314;SDS011;28703;44.412;11.918;2023-12-28T00:35:21;46.03;;;33.00;;
39314;SDS011;28703;44.412;11.918;2023-12-28T00:37:47;44.08;;;33.00;;
39314;SDS011;28703;44.412;11.918;2023-12-28T00:40:13;42.67;;;32.67;;
39314;SDS011;28703;44.412;11.918;2023-12-28T00:42:39;43.38;;;31.92;;
39314;SDS011;28703;44.412;11.918;2023-12-28T00:45:07;43.10;;;30.92;;
39314;SDS011;28703;44.412;11.918;2023-12-28T00:47:35;40.58;;;31.00;;
39314;SDS011;28703;44.412;11.918;2023-12-28T00:50:01;42.72;;;32.03;;
39314;SDS011;28703;44.412;11.918;2023-12-28T00:52:27;47.20;;;33.65;;
39314;SDS011;28703;44.412;11.918;2023-12-28T00:54:53;44.78;;;32.55;;
39314;SDS011;28703;44.412;11.918;2023-12-28T00:57:18;40.15;;;32.00;;
39314;SDS011;28703;44.412;11.918;2023-12-28T00:59:44;43.42;;;32.17;;
39314;SDS011;28703;44.412;11.918;2023-12-28T01:02:10;48.55;;;34.35;;
39314;SDS011;28703;44.412;11.918;2023-12-28T01:04:36;42.40;;;32.38;;
39314;SDS011;28703;44.412;11.918;2023-12-28T01:07:02;42.55;;;32.10;;
39314;SDS011;28703;44.412;11.918;2023-12-28T01:09:30;46.20;;;31.52;;
39314;SDS011;28703;44.412;11.918;2023-12-28T01:11:57;42.80;;;31.80;;
39314;SDS011;28703;44.412;11.918;2023-12-28T01:14:24;45.47;;;33.00;;
39314;SDS011;28703;44.412;11.918;2023-12-28T01:16:50;47.65;;;32.70;;
39314;SDS011;28703;44.412;11.918;2023-12-28T01:19:15;40.90;;;30.35;;
39314;SDS011;28703;44.412;11.918;2023-12-28T01:21:41;39.05;;;29.83;;
39314;SDS011;28703;44.412;11.918;2023-12-28T01:24:07;42.60;;;29.17;;
39314;SDS011;28703;44.412;11.918;2023-12-28T01:26:33;41.58;;;28.05;;
39314;SDS011;28703;44.412;11.918;2023-12-28T01:28:59;37.08;;;28.98;;
39314;SDS011;28703;44.412;11.918;2023-12-28T01:31:28;36.65;;;27.77;;
39314;SDS011;28703;44.412;11.918;2023-12-28T01:33:54;37.00;;;29.50;;
39314;SDS011;28703;44.412;11.918;2023-12-28T01:36:20;43.35;;;29.48;;
39314;SDS011;28703;44.412;11.918;2023-12-28T01:38:47;39.72;;;30.38;;
39314;SDS011;28703;44.412;11.918;2023-12-28T01:41:13;43.50;;;30.30;;
39314;SDS011;28703;44.412;11.918;2023-12-28T01:43:40;36.30;;;28.30;;
39314;SDS011;28703;44.412;11.918;2023-12-28T01:46:07;36.70;;;28.00;;
39314;SDS011;28703;44.412;11.918;2023-12-28T01:48:42;41.03;;;29.95;;
39314;SDS011;28703;44.412;11.918;2023-12-28T01:51:10;40.35;;;30.10;;
39314;SDS011;28703;44.412;11.918;2023-12-28T01:53:37;36.60;;;27.50;;
39314;SDS011;28703;44.412;11.918;2023-12-28T01:56:04;41.08;;;29.85;;
39314;SDS011;28703;44.412;11.918;2023-12-28T01:58:31;36.28;;;27.98;;
39314;SDS011;28703;44.412;11.918;2023-12-28T02:00:59;36.20;;;27.88;;
39314;SDS011;28703;44.412;11.918;2023-12-28T02:03:26;38.25;;;28.35;;
39314;SDS011;28703;44.412;11.918;2023-12-28T02:05:53;37.47;;;28.80;;
39314;SDS011;28703;44.412;11.918;2023-12-28T02:08:19;39.80;;;28.77;;
39314;SDS011;28703;44.412;11.918;2023-12-28T02:10:45;37.25;;;29.08;;
39314;SDS011;28703;44.412;11.918;2023-12-28T02:13:12;38.80;;;28.75;;
39314;SDS011;28703;44.412;11.918;2023-12-28T02:15:38;38.97;;;30.90;;
39314;SDS011;28703;44.412;11.918;2023-12-28T02:18:16;39.78;;;29.02;;
39314;SDS011;28703;44.412;11.918;2023-12-28T02:20:47;46.88;;;32.20;;
39314;SDS011;28703;44.412;11.918;2023-12-28T02:23:15;42.13;;;29.60;;
39314;SDS011;28703;44.412;11.918;2023-12-28T02:25:42;40.85;;;29.73;;
39314;SDS011;28703;44.412;11.918;2023-12-28T02:28:08;44.42;;;30.70;;
39314;SDS011;28703;44.412;11.918;2023-12-28T02:30:34;36.33;;;29.27;;
39314;SDS011;28703;44.412;11.918;2023-12-28T02:33:19;41.35;;;29.50;;
39314;SDS011;28703;44.412;11.918;2023-12-28T02:38:19;40.67;;;29.70;;
39314;SDS011;28703;44.412;11.918;2023-12-28T02:40:47;39.03;;;29.38;;
39314;SDS011;28703;44.412;11.918;2023-12-28T02:43:15;40.95;;;29.67;;
39314;SDS011;28703;44.412;11.918;2023-12-28T02:45:41;38.42;;;30.48;;
39314;SDS011;28703;44.412;11.918;2023-12-28T02:48:06;39.03;;;29.65;;
39314;SDS011;28703;44.412;11.918;2023-12-28T02:50:32;38.20;;;28.15;;
39314;SDS011;28703;44.412;11.918;2023-12-28T02:52:59;37.25;;;28.80;;
39314;SDS011;28703;44.412;11.918;2023-12-28T02:55:26;35.97;;;29.10;;
39314;SDS011;28703;44.412;11.918;2023-12-28T02:57:53;37.25;;;28.70;;
39314;SDS011;28703;44.412;11.918;2023-12-28T03:00:20;38.30;;;28.00;;
39314;SDS011;28703;44.412;11.918;2023-12-28T03:02:47;37.50;;;27.40;;
39314;SDS011;28703;44.412;11.918;2023-12-28T03:05:13;32.70;;;27.35;;
39314;SDS011;28703;44.412;11.918;2023-12-28T03:07:39;37.72;;;27.60;;
39314;SDS011;28703;44.412;11.918;2023-12-28T03:10:06;33.78;;;26.73;;
39314;SDS011;28703;44.412;11.918;2023-12-28T03:12:32;35.92;;;28.35;;
39314;SDS011;28703;44.412;11.918;2023-12-28T03:14:58;35.28;;;27.83;;
39314;SDS011;28703;44.412;11.918;2023-12-28T03:17:24;37.60;;;29.05;;
39314;SDS011;28703;44.412;11.918;2023-12-28T03:19:50;36.00;;;27.88;;
39314;SDS011;28703;44.412;11.918;2023-12-28T03:22:16;34.90;;;28.70;;
39314;SDS011;28703;44.412;11.918;2023-12-28T03:24:42;35.05;;;28.02;;
39314;SDS011;28703;44.412;11.918;2023-12-28T03:27:08;35.53;;;26.83;;
39314;SDS011;28703;44.412;11.918;2023-12-28T03:29:34;33.60;;;27.00;;
39314;SDS011;28703;44.412;11.918;2023-12-28T03:32:01;36.50;;;27.50;;
39314;SDS011;28703;44.412;11.918;2023-12-28T03:34:27;43.15;;;31.13;;
39314;SDS011;28703;44.412;11.918;2023-12-28T03:36:54;44.95;;;30.80;;
39314;SDS011;28703;44.412;11.918;2023-12-28T03:39:20;47.95;;;32.22;;
39314;SDS011;28703;44.412;11.918;2023-12-28T03:41:46;48.42;;;31.25;;
39314;SDS011;28703;44.412;11.918;2023-12-28T03:44:12;39.33;;;28.85;;
39314;SDS011;28703;44.412;11.918;2023-12-28T03:46:38;41.40;;;27.10;;
39314;SDS011;28703;44.412;11.918;2023-12-28T03:49:04;37.40;;;27.35;;
39314;SDS011;28703;44.412;11.918;2023-12-28T03:51:31;35.30;;;25.83;;
39314;SDS011;28703;44.412;11.918;2023-12-28T03:53:57;35.42;;;26.35;;
39314;SDS011;28703;44.412;11.918;2023-12-28T03:56:24;33.00;;;23.98;;
39314;SDS011;28703;44.412;11.918;2023-12-28T03:58:52;34.60;;;24.00;;
39314;SDS011;28703;44.412;11.918;2023-12-28T04:01:22;32.15;;;25.55;;
39314;SDS011;28703;44.412;11.918;2023-12-28T04:03:48;31.38;;;25.27;;
39314;SDS011;28703;44.412;11.918;2023-12-28T04:06:15;36.45;;;26.00;;
39314;SDS011;28703;44.412;11.918;2023-12-28T04:08:41;34.17;;;25.75;;
39314;SDS011;28703;44.412;11.918;2023-12-28T04:11:07;41.17;;;29.50;;
39314;SDS011;28703;44.412;11.918;2023-12-28T04:13:34;35.33;;;27.13;;
39314;SDS011;28703;44.412;11.918;2023-12-28T04:16:01;35.97;;;28.70;;
39314;SDS011;28703;44.412;11.918;2023-12-28T04:18:27;41.10;;;28.33;;
39314;SDS011;28703;44.412;11.918;2023-12-28T04:20:53;38.53;;;27.75;;
39314;SDS011;28703;44.412;11.918;2023-12-28T04:23:19;39.65;;;30.08;;
39314;SDS011;28703;44.412;11.918;2023-12-28T04:25:45;41.75;;;29.45;;
39314;SDS011;28703;44.412;11.918;2023-12-28T04:28:11;40.08;;;29.88;;
39314;SDS011;28703;44.412;11.918;2023-12-28T04:30:37;40.05;;;30.00;;
39314;SDS011;28703;44.412;11.918;2023-12-28T04:33:03;39.95;;;28.55;;
39314;SDS011;28703;44.412;11.918;2023-12-28T04:35:29;39.22;;;27.92;;
39314;SDS011;28703;44.412;11.918;2023-12-28T04:37:56;41.25;;;30.15;;
39314;SDS011;28703;44.412;11.918;2023-12-28T04:40:22;45.45;;;30.80;;
39314;SDS011;28703;44.412;11.918;2023-12-28T04:42:48;41.10;;;29.65;;
39314;SDS011;28703;44.412;11.918;2023-12-28T04:45:14;37.63;;;29.90;;
39314;SDS011;28703;44.412;11.918;2023-12-28T04:47:40;42.28;;;30.10;;
39314;SDS011;28703;44.412;11.918;2023-12-28T04:50:06;44.83;;;29.65;;
39314;SDS011;28703;44.412;11.918;2023-12-28T04:52:32;40.15;;;31.52;;
39314;SDS011;28703;44.412;11.918;2023-12-28T04:54:59;42.40;;;30.20;;
39314;SDS011;28703;44.412;11.918;2023-12-28T04:57:26;42.15;;;31.92;;
39314;SDS011;28703;44.412;11.918;2023-12-28T04:59:53;38.03;;;30.27;;
39314;SDS011;28703;44.412;11.918;2023-12-28T05:02:19;40.35;;;30.52;;
39314;SDS011;28703;44.412;11.918;2023-12-28T05:04:45;40.10;;;31.17;;
39314;SDS011;28703;44.412;11.918;2023-12-28T05:07:11;50.35;;;34.25;;
39314;SDS011;28703;44.412;11.918;2023-12-28T05:09:37;40.75;;;31.70;;
39314;SDS011;28703;44.412;11.918;2023-12-28T05:12:03;40.30;;;31.25;;
39314;SDS011;28703;44.412;11.918;2023-12-28T05:14:29;44.60;;;31.27;;
39314;SDS011;28703;44.412;11.918;2023-12-28T05:16:55;43.83;;;29.48;;
39314;SDS011;28703;44.412;11.918;2023-12-28T05:19:21;41.45;;;30.25;;
39314;SDS011;28703;44.412;11.918;2023-12-28T05:21:47;41.15;;;29.77;;
39314;SDS011;28703;44.412;11.918;2023-12-28T05:24:13;43.08;;;30.63;;
39314;SDS011;28703;44.412;11.918;2023-12-28T05:26:39;39.33;;;30.60;;
39314;SDS011;28703;44.412;11.918;2023-12-28T05:29:04;37.22;;;29.70;;
39314;SDS011;28703;44.412;11.918;2023-12-28T05:31:30;40.22;;;29.88;;
39314;SDS011;28703;44.412;11.918;2023-12-28T05:33:56;36.75;;;28.88;;
39314;SDS011;28703;44.412;11.918;2023-12-28T05:36:23;37.30;;;28.08;;
39314;SDS011;28703;44.412;11.918;2023-12-28T05:38:49;32.65;;;24.83;;
39314;SDS011;28703;44.412;11.918;2023-12-28T05:41:16;25.92;;;23.08;;
39314;SDS011;28703;44.412;11.918;2023-12-28T05:43:41;28.45;;;22.00;;
39314;SDS011;28703;44.412;11.918;2023-12-28T05:46:07;23.98;;;20.42;;
39314;SDS011;28703;44.412;11.918;2023-12-28T05:48:33;21.58;;;19.45;;
39314;SDS011;28703;44.412;11.918;2023-12-28T05:50:59;21.33;;;19.02;;
39314;SDS011;28703;44.412;11.918;2023-12-28T05:53:25;20.60;;;18.30;;
39314;SDS011;28703;44.412;11.918;2023-12-28T05:55:52;20.65;;;18.48;;
39314;SDS011;28703;44.412;11.918;2023-12-28T05:58:19;20.80;;;18.60;;
39314;SDS011;28703;44.412;11.918;2023-12-28T06:00:44;24.02;;;19.42;;
39314;SDS011;28703;44.412;11.918;2023-12-28T06:03:13;20.63;;;18.42;;
39314;SDS011;28703;44.412;11.918;2023-12-28T06:05:39;20.25;;;18.17;;
39314;SDS011;28703;44.412;11.918;2023-12-28T06:08:05;18.83;;;16.92;;
39314;SDS011;28703;44.412;11.918;2023-12-28T06:10:31;21.02;;;17.98;;
39314;SDS011;28703;44.412;11.918;2023-12-28T06:12:57;20.33;;;18.23;;
39314;SDS011;28703;44.412;11.918;2023-12-28T06:15:23;20.40;;;18.08;;
39314;SDS011;28703;44.412;11.918;2023-12-28T06:17:49;18.33;;;16.48;;
39314;SDS011;28703;44.412;11.918;2023-12-28T06:20:14;18.70;;;16.88;;
39314;SDS011;28703;44.412;11.918;2023-12-28T06:22:40;20.77;;;17.45;;
39314;SDS011;28703;44.412;11.918;2023-12-28T06:25:06;19.73;;;17.63;;
39314;SDS011;28703;44.412;11.918;2023-12-28T06:27:33;17.45;;;15.55;;
39314;SDS011;28703;44.412;11.918;2023-12-28T06:29:59;19.30;;;17.23;;
39314;SDS011;28703;44.412;11.918;2023-12-28T06:32:24;19.20;;;17.25;;
39314;SDS011;28703;44.412;11.918;2023-12-28T06:34:50;18.88;;;17.08;;
39314;SDS011;28703;44.412;11.918;2023-12-28T06:37:16;17.88;;;16.23;;
39314;SDS011;28703;44.412;11.918;2023-12-28T06:39:42;19.10;;;17.15;;
39314;SDS011;28703;44.412;11.918;2023-12-28T06:42:08;67.72;;;18.30;;
39314;SDS011;28703;44.412;11.918;2023-12-28T06:44:34;20.20;;;17.67;;
39314;SDS011;28703;44.412;11.918;2023-12-28T06:47:00;22.48;;;17.75;;
39314;SDS011;28703;44.412;11.918;2023-12-28T06:49:25;22.27;;;19.25;;
39314;SDS011;28703;44.412;11.918;2023-12-28T06:51:51;62.15;;;19.85;;
39314;SDS011;28703;44.412;11.918;2023-12-28T06:54:17;62.42;;;18.55;;
39314;SDS011;28703;44.412;11.918;2023-12-28T06:56:43;21.33;;;19.13;;
39314;SDS011;28703;44.412;11.918;2023-12-28T06:59:09;20.42;;;18.27;;
39314;SDS011;28703;44.412;11.918;2023-12-28T07:01:40;21.90;;;17.67;;
39314;SDS011;28703;44.412;11.918;2023-12-28T07:04:06;20.80;;;18.55;;
39314;SDS011;28703;44.412;11.918;2023-12-28T07:06:32;21.17;;;19.10;;
39314;SDS011;28703;44.412;11.918;2023-12-28T07:08:58;26.75;;;23.52;;
39314;SDS011;28703;44.412;11.918;2023-12-28T07:11:24;30.90;;;26.15;;
39314;SDS011;28703;44.412;11.918;2023-12-28T07:13:51;28.45;;;24.60;;
39314;SDS011;28703;44.412;11.918;2023-12-28T07:16:18;26.13;;;22.20;;
39314;SDS011;28703;44.412;11.918;2023-12-28T07:18:44;27.90;;;21.65;;
39314;SDS011;28703;44.412;11.918;2023-12-28T07:21:10;27.48;;;20.67;;
39314;SDS011;28703;44.412;11.918;2023-12-28T07:23:36;22.75;;;20.35;;
39314;SDS011;28703;44.412;11.918;2023-12-28T07:26:03;23.85;;;21.27;;
39314;SDS011;28703;44.412;11.918;2023-12-28T07:28:30;25.23;;;21.23;;
39314;SDS011;28703;44.412;11.918;2023-12-28T07:30:56;26.00;;;22.15;;
39314;SDS011;28703;44.412;11.918;2023-12-28T07:33:22;23.52;;;19.50;;
39314;SDS011;28703;44.412;11.918;2023-12-28T07:35:48;23.40;;;20.88;;
39314;SDS011;28703;44.412;11.918;2023-12-28T07:38:14;25.75;;;19.45;;
39314;SDS011;28703;44.412;11.918;2023-12-28T07:40:40;28.70;;;20.60;;
39314;SDS011;28703;44.412;11.918;2023-12-28T07:43:06;25.15;;;20.58;;
39314;SDS011;28703;44.412;11.918;2023-12-28T07:45:32;28.70;;;21.55;;
39314;SDS011;28703;44.412;11.918;2023-12-28T07:48:01;29.88;;;22.88;;
39314;SDS011;28703;44.412;11.918;2023-12-28T07:50:27;33.50;;;24.00;;
39314;SDS011;28703;44.412;11.918;2023-12-28T07:52:53;32.08;;;23.48;;
39314;SDS011;28703;44.412;11.918;2023-12-28T07:55:18;29.95;;;23.80;;
39314;SDS011;28703;44.412;11.918;2023-12-28T07:57:45;27.52;;;22.50;;
39314;SDS011;28703;44.412;11.918;2023-12-28T08:00:11;30.30;;;24.20;;
39314;SDS011;28703;44.412;11.918;2023-12-28T08:02:37;30.67;;;23.70;;
39314;SDS011;28703;44.412;11.918;2023-12-28T08:05:03;26.40;;;23.52;;
39314;SDS011;28703;44.412;11.918;2023-12-28T08:07:30;31.88;;;25.10;;
39314;SDS011;28703;44.412;11.918;2023-12-28T08:09:55;32.58;;;24.83;;
39314;SDS011;28703;44.412;11.918;2023-12-28T08:12:21;28.58;;;24.13;;
39314;SDS011;28703;44.412;11.918;2023-12-28T08:14:49;34.85;;;24.70;;
39314;SDS011;28703;44.412;11.918;2023-12-28T08:17:15;34.78;;;24.77;;
39314;SDS011;28703;44.412;11.918;2023-12-28T08:19:41;35.55;;;25.42;;
39314;SDS011;28703;44.412;11.918;2023-12-28T08:22:07;31.60;;;24.98;;
39314;SDS011;28703;44.412;11.918;2023-12-28T08:24:33;26.83;;;23.67;;
39314;SDS011;28703;44.412;11.918;2023-12-28T08:26:58;27.77;;;24.23;;
39314;SDS011;28703;44.412;11.918;2023-12-28T08:29:25;27.77;;;24.70;;
39314;SDS011;28703;44.412;11.918;2023-12-28T08:31:51;32.63;;;24.05;;
39314;SDS011;28703;44.412;11.918;2023-12-28T08:34:17;29.45;;;24.63;;
39314;SDS011;28703;44.412;11.918;2023-12-28T08:36:43;35.05;;;24.30;;
39314;SDS011;28703;44.412;11.918;2023-12-28T08:39:09;32.08;;;26.42;;
39314;SDS011;28703;44.412;11.918;2023-12-28T08:41:35;39.22;;;28.75;;
39314;SDS011;28703;44.412;11.918;2023-12-28T08:44:00;42.78;;;30.15;;
39314;SDS011;28703;44.412;11.918;2023-12-28T08:46:26;37.83;;;29.30;;
39314;SDS011;28703;44.412;11.918;2023-12-28T08:48:53;44.15;;;34.00;;
39314;SDS011;28703;44.412;11.918;2023-12-28T08:51:19;38.47;;;29.98;;
39314;SDS011;28703;44.412;11.918;2023-12-28T08:53:45;35.55;;;29.00;;
39314;SDS011;28703;44.412;11.918;2023-12-28T08:56:21;33.70;;;28.05;;
39314;SDS011;28703;44.412;11.918;2023-12-28T08:58:48;35.83;;;27.00;;
39314;SDS011;28703;44.412;11.918;2023-12-28T09:01:15;32.33;;;26.63;;
39314;SDS011;28703;44.412;11.918;2023-12-28T09:06:15;40.97;;;31.20;;
39314;SDS011;28703;44.412;11.918;2023-12-28T09:08:42;40.65;;;31.05;;
39314;SDS011;28703;44.412;11.918;2023-12-28T09:11:12;40.55;;;32.33;;
39314;SDS011;28703;44.412;11.918;2023-12-28T09:13:38;47.03;;;35.28;;
39314;SDS011;28703;44.412;11.918;2023-12-28T09:16:05;45.17;;;36.35;;
39314;SDS011;28703;44.412;11.918;2023-12-28T09:18:32;50.78;;;37.08;;
39314;SDS011;28703;44.412;11.918;2023-12-28T09:20:59;44.33;;;36.67;;
39314;SDS011;28703;44.412;11.918;2023-12-28T09:23:24;43.30;;;35.08;;
39314;SDS011;28703;44.412;11.918;2023-12-28T09:25:50;44.35;;;36.15;;
39314;SDS011;28703;44.412;11.918;2023-12-28T09:28:16;51.80;;;38.22;;
39314;SDS011;28703;44.412;11.918;2023-12-28T09:30:42;45.53;;;36.85;;
39314;SDS011;28703;44.412;11.918;2023-12-28T09:33:07;47.75;;;36.38;;
39314;SDS011;28703;44.412;11.918;2023-12-28T09:35:33;43.95;;;35.47;;
39314;SDS011;28703;44.412;11.918;2023-12-28T09:38:01;42.42;;;35.63;;
39314;SDS011;28703;44.412;11.918;2023-12-28T09:40:27;42.65;;;36.35;;
39314;SDS011;28703;44.412;11.918;2023-12-28T09:45:49;39.30;;;33.85;;
39314;SDS011;28703;44.412;11.918;2023-12-28T09:48:16;52.90;;;38.75;;
39314;SDS011;28703;44.412;11.918;2023-12-28T09:50:43;51.30;;;39.85;;
39314;SDS011;28703;44.412;11.918;2023-12-28T09:53:10;51.00;;;40.10;;
39314;SDS011;28703;44.412;11.918;2023-12-28T09:55:37;55.90;;;39.78;;
39314;SDS011;28703;44.412;11.918;2023-12-28T09:58:03;59.28;;;41.70;;
39314;SDS011;28703;44.412;11.918;2023-12-28T10:00:31;56.25;;;40.10;;
39314;SDS011;28703;44.412;11.918;2023-12-28T10:02:57;53.65;;;40.10;;
39314;SDS011;28703;44.412;11.918;2023-12-28T10:05:23;58.78;;;42.30;;
39314;SDS011;28703;44.412;11.918;2023-12-28T10:07:50;50.20;;;39.55;;
39314;SDS011;28703;44.412;11.918;2023-12-28T10:10:16;55.28;;;41.28;;
39314;SDS011;28703;44.412;11.918;2023-12-28T10:12:42;50.08;;;41.72;;
39314;SDS011;28703;44.412;11.918;2023-12-28T10:15:08;61.70;;;39.28;;
39314;SDS011;28703;44.412;11.918;2023-12-28T10:17:35;47.83;;;42.03;;
39314;SDS011;28703;44.412;11.918;2023-12-28T10:20:01;59.30;;;44.58;;
39314;SDS011;28703;44.412;11.918;2023-12-28T10:22:31;57.42;;;45.78;;
39314;SDS011;28703;44.412;11.918;2023-12-28T10:24:57;49.15;;;40.05;;
39314;SDS011;28703;44.412;11.918;2023-12-28T10:27:27;50.58;;;38.83;;
39314;SDS011;28703;44.412;11.918;2023-12-28T10:29:53;49.25;;;40.70;;
39314;SDS011;28703;44.412;11.918;2023-12-28T10:32:20;48.10;;;41.10;;
39314;SDS011;28703;44.412;11.918;2023-12-28T10:34:48;45.17;;;38.70;;
39314;SDS011;28703;44.412;11.918;2023-12-28T10:37:14;43.50;;;37.65;;
39314;SDS011;28703;44.412;11.918;2023-12-28T10:39:44;44.63;;;36.22;;
39314;SDS011;28703;44.412;11.918;2023-12-28T10:42:12;43.13;;;35.65;;
39314;SDS011;28703;44.412;11.918;2023-12-28T10:44:42;45.72;;;35.95;;
39314;SDS011;28703;44.412;11.918;2023-12-28T10:47:15;44.00;;;35.42;;
39314;SDS011;28703;44.412;11.918;2023-12-28T10:49:42;45.60;;;35.28;;
39314;SDS011;28703;44.412;11.918;2023-12-28T10:52:10;40.83;;;35.75;;
39314;SDS011;28703;44.412;11.918;2023-12-28T10:54:44;42.53;;;34.37;;
39314;SDS011;28703;44.412;11.918;2023-12-28T10:57:29;43.63;;;36.03;;
39314;SDS011;28703;44.412;11.918;2023-12-28T11:00:07;38.55;;;32.80;;
39314;SDS011;28703;44.412;11.918;2023-12-28T11:02:47;41.72;;;33.75;;
39314;SDS011;28703;44.412;11.918;2023-12-28T11:05:17;42.35;;;36.92;;
39314;SDS011;28703;44.412;11.918;2023-12-28T11:07:45;56.08;;;33.58;;
39314;SDS011;28703;44.412;11.918;2023-12-28T11:10:13;37.08;;;32.45;;
39314;SDS011;28703;44.412;11.918;2023-12-28T11:12:39;39.45;;;33.33;;
39314;SDS011;28703;44.412;11.918;2023-12-28T11:15:06;40.90;;;32.67;;
39314;SDS011;28703;44.412;11.918;2023-12-28T11:17:35;41.53;;;33.70;;
39314;SDS011;28703;44.412;11.918;2023-12-28T11:20:02;40.22;;;31.42;;
39314;SDS011;28703;44.412;11.918;2023-12-28T11:22:30;40.78;;;34.30;;
39314;SDS011;28703;44.412;11.918;2023-12-28T11:24:57;40.90;;;32.83;;
39314;SDS011;28703;44.412;11.918;2023-12-28T11:27:23;38.78;;;34.67;;
39314;SDS011;28703;44.412;11.918;2023-12-28T11:29:49;44.47;;;32.65;;
39314;SDS011;28703;44.412;11.918;2023-12-28T11:32:17;38.33;;;32.40;;
39314;SDS011;28703;44.412;11.918;2023-12-28T11:34:44;38.00;;;31.80;;
39314;SDS011;28703;44.412;11.918;2023-12-28T11:37:14;34.97;;;29.33;;
39314;SDS011;28703;44.412;11.918;2023-12-28T11:39:45;40.42;;;33.97;;
39314;SDS011;28703;44.412;11.918;2023-12-28T11:42:18;43.92;;;35.45;;
39314;SDS011;28703;44.412;11.918;2023-12-28T11:44:45;42.95;;;35.25;;
39314;SDS011;28703;44.412;11.918;2023-12-28T11:47:24;43.22;;;35.33;;
39314;SDS011;28703;44.412;11.918;2023-12-28T11:49:54;45.38;;;34.78;;
39314;SDS011;28703;44.412;11.918;2023-12-28T11:52:23;38.58;;;33.05;;
39314;SDS011;28703;44.412;11.918;2023-12-28T11:54:50;37.10;;;32.05;;
39314;SDS011;28703;44.412;11.918;2023-12-28T11:57:16;38.72;;;33.22;;
39314;SDS011;28703;44.412;11.918;2023-12-28T11:59:42;43.33;;;31.20;;
39314;SDS011;28703;44.412;11.918;2023-12-28T12:02:09;34.72;;;29.33;;
39314;SDS011;28703;44.412;11.918;2023-12-28T12:04:36;37.67;;;29.63;;
39314;SDS011;28703;44.412;11.918;2023-12-28T12:07:02;32.80;;;29.30;;
39314;SDS011;28703;44.412;11.918;2023-12-28T12:09:29;32.05;;;28.65;;
39314;SDS011;28703;44.412;11.918;2023-12-28T12:11:59;36.13;;;28.75;;
39314;SDS011;28703;44.412;11.918;2023-12-28T12:14:26;34.13;;;28.45;;
39314;SDS011;28703;44.412;11.918;2023-12-28T12:16:54;32.50;;;28.35;;
39314;SDS011;28703;44.412;11.918;2023-12-28T12:19:23;36.17;;;27.88;;
39314;SDS011;28703;44.412;11.918;2023-12-28T12:21:54;30.88;;;27.65;;
39314;SDS011;28703;44.412;11.918;2023-12-28T12:24:21;34.00;;;28.83;;
39314;SDS011;28703;44.412;11.918;2023-12-28T12:26:51;36.53;;;30.02;;
39314;SDS011;28703;44.412;11.918;2023-12-28T12:29:17;38.53;;;32.67;;
39314;SDS011;28703;44.412;11.918;2023-12-28T12:31:44;42.15;;;33.90;;
39314;SDS011;28703;44.412;11.918;2023-12-28T12:34:14;34.97;;;30.75;;
39314;SDS011;28703;44.412;11.918;2023-12-28T12:36:41;40.92;;;31.40;;
39314;SDS011;28703;44.412;11.918;2023-12-28T12:39:07;38.83;;;30.77;;
39314;SDS011;28703;44.412;11.918;2023-12-28T12:41:36;32.72;;;29.13;;
39314;SDS011;28703;44.412;11.918;2023-12-28T12:44:03;39.78;;;29.23;;
39314;SDS011;28703;44.412;11.918;2023-12-28T12:46:30;35.78;;;29.83;;
39314;SDS011;28703;44.412;11.918;2023-12-28T12:48:59;37.75;;;29.35;;
39314;SDS011;28703;44.412;11.918;2023-12-28T12:51:27;34.60;;;30.17;;
39314;SDS011;28703;44.412;11.918;2023-12-28T12:53:57;34.08;;;30.15;;
39314;SDS011;28703;44.412;11.918;2023-12-28T12:56:27;36.67;;;32.55;;
39314;SDS011;28703;44.412;11.918;2023-12-28T12:58:55;37.33;;;31.90;;
39314;SDS011;28703;44.412;11.918;2023-12-28T13:01:21;43.90;;;32.28;;
39314;SDS011;28703;44.412;11.918;2023-12-28T13:03:50;36.60;;;31.10;;
39314;SDS011;28703;44.412;11.918;2023-12-28T13:06:16;35.40;;;30.52;;
39314;SDS011;28703;44.412;11.918;2023-12-28T13:08:43;36.97;;;30.83;;
39314;SDS011;28703;44.412;11.918;2023-12-28T13:11:08;35.75;;;31.67;;
39314;SDS011;28703;44.412;11.918;2023-12-28T13:13:35;39.20;;;27.98;;
39314;SDS011;28703;44.412;11.918;2023-12-28T13:16:04;32.03;;;27.98;;
39314;SDS011;28703;44.412;11.918;2023-12-28T13:18:30;37.72;;;32.42;;
39314;SDS011;28703;44.412;11.918;2023-12-28T13:20:57;30.83;;;25.73;;
39314;SDS011;28703;44.412;11.918;2023-12-28T13:23:23;38.95;;;32.47;;
39314;SDS011;28703;44.412;11.918;2023-12-28T13:25:49;44.35;;;35.75;;
39314;SDS011;28703;44.412;11.918;2023-12-28T13:28:16;40.47;;;33.55;;
39314;SDS011;28703;44.412;11.918;2023-12-28T13:30:42;33.28;;;29.10;;
39314;SDS011;28703;44.412;11.918;2023-12-28T13:33:08;29.45;;;25.83;;
39314;SDS011;28703;44.412;11.918;2023-12-28T13:35:34;32.42;;;26.40;;
39314;SDS011;28703;44.412;11.918;2023-12-28T13:38:00;33.10;;;25.83;;
39314;SDS011;28703;44.412;11.918;2023-12-28T13:40:29;34.60;;;27.10;;
39314;SDS011;28703;44.412;11.918;2023-12-28T13:42:57;30.38;;;26.50;;
39314;SDS011;28703;44.412;11.918;2023-12-28T13:45:23;33.60;;;27.55;;
39314;SDS011;28703;44.412;11.918;2023-12-28T13:47:49;38.08;;;27.35;;
39314;SDS011;28703;44.412;11.918;2023-12-28T13:50:15;33.70;;;27.27;;
39314;SDS011;28703;44.412;11.918;2023-12-28T13:52:41;29.58;;;26.38;;
39314;SDS011;28703;44.412;11.918;2023-12-28T13:55:07;31.98;;;25.98;;
39314;SDS011;28703;44.412;11.918;2023-12-28T13:57:32;31.02;;;25.63;;
39314;SDS011;28703;44.412;11.918;2023-12-28T13:59:58;32.58;;;27.17;;
39314;SDS011;28703;44.412;11.918;2023-12-28T14:02:29;36.60;;;27.02;;
39314;SDS011;28703;44.412;11.918;2023-12-28T14:04:55;34.00;;;26.95;;
39314;SDS011;28703;44.412;11.918;2023-12-28T14:07:21;29.88;;;25.80;;
39314;SDS011;28703;44.412;11.918;2023-12-28T14:09:48;31.73;;;26.83;;
39314;SDS011;28703;44.412;11.918;2023-12-28T14:12:13;36.13;;;26.45;;
39314;SDS011;28703;44.412;11.918;2023-12-28T14:14:40;31.33;;;26.40;;